createdAt,value
2023-04-01T00:01:06.721Z,26.62
2023-04-01T00:05:06.914Z,26.09
2023-04-01T00:09:07.067Z,27.91
2023-04-01T00:13:07.270Z,27.62
2023-04-01T00:17:07.479Z,28.02
2023-04-01T00:21:07.905Z,28.56
2023-04-01T00:25:07.900Z,27.51
2023-04-01T00:29:08.000Z,29.56
2023-04-01T00:33:09.010Z,26.98
2023-04-01T00:37:08.405Z,26.03
2023-04-01T00:41:08.592Z,28.15
2023-04-01T00:45:08.905Z,26.67
2023-04-01T00:49:09.015Z,27.60
2023-04-01T00:53:09.166Z,26.72
2023-04-01T00:57:09.502Z,27.02
2023-04-01T01:01:09.681Z,25.21
2023-04-01T01:05:09.729Z,27.84
2023-04-01T01:09:09.862Z,27.62
2023-04-01T01:13:10.435Z,27.62
2023-04-01T01:17:10.273Z,26.06
2023-04-01T01:21:10.920Z,26.40
2023-04-01T01:25:10.960Z,27.48
2023-04-01T01:29:10.832Z,26.21
2023-04-01T01:33:11.448Z,26.94
2023-04-01T01:37:11.448Z,26.63
2023-04-01T01:41:11.433Z,25.21
2023-04-01T01:45:11.930Z,27.43
2023-04-01T01:49:11.746Z,27.95
2023-04-01T01:53:12.425Z,27.68
2023-04-01T01:57:12.481Z,27.84
2023-04-01T02:01:12.414Z,26.45
2023-04-01T02:05:12.973Z,27.68
2023-04-01T02:09:12.777Z,29.42
2023-04-01T02:13:13.020Z,28.04
2023-04-01T02:17:13.456Z,26.69
2023-04-01T02:21:13.444Z,28.51
2023-04-01T02:25:13.969Z,27.30
2023-04-01T02:29:13.781Z,25.47
2023-04-01T02:33:14.451Z,29.52
2023-04-01T02:37:14.466Z,27.43
2023-04-01T02:41:14.453Z,27.31
2023-04-01T02:45:14.960Z,27.23
2023-04-01T02:49:14.735Z,28.39
2023-04-01T02:53:14.986Z,28.75
2023-04-01T02:57:15.536Z,26.68
2023-04-01T03:01:15.217Z,28.25
2023-04-01T03:05:15.284Z,26.11
2023-04-01T03:09:15.497Z,26.73
2023-04-01T03:13:15.504Z,27.02
2023-04-01T03:17:15.973Z,25.24
2023-04-01T03:21:15.963Z,27.85
2023-04-01T03:25:15.684Z,28.01
2023-04-01T03:29:15.968Z,28.35
2023-04-01T03:33:15.795Z,26.71
2023-04-01T03:37:15.980Z,27.92
2023-04-01T03:41:15.993Z,27.93
2023-04-01T03:45:15.907Z,28.53
2023-04-01T03:49:16.502Z,28.13
2023-04-01T03:53:16.450Z,26.08
2023-04-01T03:57:16.216Z,29.12
2023-04-01T04:01:16.274Z,27.05
2023-04-01T04:05:17.552Z,26.49
2023-04-01T04:09:16.497Z,28.94
2023-04-01T04:13:16.417Z,27.10
2023-04-01T04:17:17.020Z,29.40
2023-04-01T04:21:16.610Z,28.89
2023-04-01T04:25:16.983Z,27.78
2023-04-01T04:29:16.989Z,27.31
2023-04-01T04:33:16.735Z,30.70
2023-04-01T04:37:16.993Z,28.29
2023-04-01T04:41:16.816Z,27.94
2023-04-01T04:45:16.861Z,27.43
2023-04-01T04:49:17.004Z,28.18
2023-04-01T04:53:16.956Z,30.64
2023-04-01T04:57:17.539Z,31.06
2023-04-01T05:01:17.093Z,30.31
2023-04-01T05:05:17.528Z,29.08
2023-04-01T05:09:17.524Z,34.12
2023-04-01T05:13:17.187Z,32.18
2023-04-01T05:17:17.506Z,32.84
2023-04-01T05:21:17.310Z,33.84
2023-04-01T05:25:17.527Z,35.14
2023-04-01T05:29:17.415Z,34.55
2023-04-01T05:33:18.018Z,34.33
2023-04-01T05:37:17.512Z,35.35
2023-04-01T05:41:17.605Z,33.60
2023-04-01T05:45:18.007Z,38.89
2023-04-01T05:49:17.738Z,37.33
2023-04-01T05:53:18.010Z,37.11
2023-04-01T05:57:17.916Z,37.85
2023-04-01T06:01:17.951Z,43.50
2023-04-01T06:05:18.529Z,41.89
2023-04-01T06:09:18.108Z,39.64
2023-04-01T06:13:18.502Z,41.10
2023-04-01T06:17:18.238Z,43.05
2023-04-01T06:21:18.352Z,44.16
2023-04-01T06:25:18.590Z,40.99
2023-04-01T06:29:18.559Z,42.51
2023-04-01T06:33:19.031Z,42.00
2023-04-01T06:37:18.581Z,43.81
2023-04-01T06:41:18.668Z,44.71
2023-04-01T06:45:19.043Z,41.83
2023-04-01T06:49:18.830Z,42.03
2023-04-01T06:53:19.049Z,44.56
2023-04-01T06:57:19.304Z,44.39
2023-04-01T07:01:19.191Z,47.26
2023-04-01T07:05:19.531Z,42.13
2023-04-01T07:09:19.343Z,45.66
2023-04-01T07:13:19.566Z,43.85
2023-04-01T07:17:19.572Z,43.63
2023-04-01T07:21:19.558Z,44.59
2023-04-01T07:25:20.045Z,42.72
2023-04-01T07:29:19.708Z,45.10
2023-04-01T07:33:20.120Z,44.71
2023-04-01T07:37:19.843Z,44.83
2023-04-01T07:41:20.050Z,44.58
2023-04-01T07:45:20.069Z,45.81
2023-04-01T07:49:20.544Z,47.25
2023-04-01T07:53:20.171Z,45.65
2023-04-01T07:57:20.643Z,45.91
2023-04-01T08:01:20.365Z,44.91
2023-04-01T08:05:20.550Z,45.07
2023-04-01T08:09:20.555Z,47.56
2023-04-01T08:13:20.581Z,47.30
2023-04-01T08:17:21.103Z,47.63
2023-04-01T08:21:21.068Z,42.96
2023-04-01T08:25:21.064Z,47.89
2023-04-01T08:29:20.897Z,49.89
2023-04-01T08:33:20.963Z,45.77
2023-04-01T08:37:21.056Z,46.41
2023-04-01T08:41:21.603Z,45.91
2023-04-01T08:45:21.581Z,50.17
2023-04-01T08:49:21.261Z,46.56
2023-04-01T08:53:21.333Z,44.67
2023-04-01T08:57:21.599Z,44.19
2023-04-01T09:01:21.474Z,44.21
2023-04-01T09:05:21.604Z,46.65
2023-04-01T09:09:21.548Z,47.81
2023-04-01T09:13:21.599Z,44.68
2023-04-01T09:17:22.109Z,45.33
2023-04-01T09:21:22.103Z,45.54
2023-04-01T09:25:22.143Z,47.10
2023-04-01T09:29:21.895Z,42.41
2023-04-01T09:33:21.984Z,48.09
2023-04-01T09:37:22.103Z,44.20
2023-04-01T09:41:22.082Z,43.46
2023-04-01T09:45:22.119Z,44.65
2023-04-01T09:49:22.127Z,45.52
2023-04-01T09:53:22.610Z,43.60
2023-04-01T09:57:22.690Z,45.89
2023-04-01T10:01:22.266Z,42.10
2023-04-01T10:05:22.668Z,43.99
2023-04-01T10:09:22.341Z,41.90
2023-04-01T10:13:22.611Z,40.66
2023-04-01T10:17:22.719Z,43.10
2023-04-01T10:21:22.630Z,39.64
2023-04-01T10:25:22.629Z,42.79
2023-04-01T10:29:22.611Z,36.57
2023-04-01T10:33:22.687Z,34.86
2023-04-01T10:37:23.134Z,38.84
2023-04-01T10:41:23.130Z,42.01
2023-04-01T10:45:23.110Z,37.86
2023-04-01T10:49:22.856Z,36.47
2023-04-01T10:53:22.930Z,38.17
2023-04-01T10:57:23.166Z,36.85
2023-04-01T11:01:23.121Z,34.03
2023-04-01T11:05:23.614Z,38.56
2023-04-01T11:09:23.148Z,35.59
2023-04-01T11:13:23.682Z,36.31
2023-04-01T11:17:23.714Z,37.12
2023-04-01T11:21:26.097Z,37.57
2023-04-01T11:25:23.243Z,33.32
2023-04-01T11:29:23.649Z,36.94
2023-04-01T11:33:23.654Z,34.26
2023-04-01T11:37:23.631Z,35.14
2023-04-01T11:41:23.153Z,35.91
2023-04-01T11:45:23.091Z,36.93
2023-04-01T11:49:23.075Z,37.53
2023-04-01T11:53:23.132Z,32.77
2023-04-01T11:57:23.048Z,35.25
2023-04-01T12:01:22.957Z,36.70
2023-04-01T12:05:22.900Z,35.49
2023-04-01T12:09:22.864Z,33.84
2023-04-01T12:13:23.262Z,35.93
2023-04-01T12:17:23.158Z,33.05
2023-04-01T12:21:22.738Z,35.40
2023-04-01T12:25:22.760Z,35.43
2023-04-01T12:29:22.694Z,33.63
2023-04-01T12:33:22.654Z,37.10
2023-04-01T12:37:22.628Z,39.73
2023-04-01T12:41:22.701Z,36.72
2023-04-01T12:45:22.544Z,38.69
2023-04-01T12:49:22.521Z,36.57
2023-04-01T12:53:22.702Z,35.02
2023-04-01T12:57:22.546Z,30.73
2023-04-01T13:01:30.253Z,38.18
2023-04-01T13:05:22.478Z,37.70
2023-04-01T13:09:22.478Z,33.30
2023-04-01T13:13:22.710Z,34.51
2023-04-01T13:17:22.714Z,30.09
2023-04-01T13:21:22.367Z,35.84
2023-04-01T13:25:22.336Z,31.05
2023-04-01T13:29:22.682Z,31.71
2023-04-01T13:33:22.823Z,29.89
2023-04-01T13:37:22.727Z,30.22
2023-04-01T13:41:22.502Z,34.59
2023-04-01T13:45:22.706Z,34.28
2023-04-01T13:49:22.693Z,31.43
2023-04-01T13:53:22.701Z,25.93
2023-04-01T13:57:23.403Z,34.71
2023-04-01T14:01:22.867Z,28.41
2023-04-01T14:05:29.366Z,33.88
2023-04-01T14:09:24.207Z,29.44
2023-04-01T14:13:23.209Z,26.04
2023-04-01T14:17:23.196Z,30.55
2023-04-01T14:21:22.692Z,34.15
2023-04-01T14:25:23.219Z,38.23
2023-04-01T14:29:23.208Z,37.80
2023-04-01T14:33:23.196Z,39.80
2023-04-01T14:37:22.966Z,37.52
2023-04-01T14:41:23.063Z,36.67
2023-04-01T14:45:23.223Z,39.31
2023-04-01T14:49:23.730Z,37.55
2023-04-01T14:53:23.326Z,37.76
2023-04-01T14:57:23.493Z,39.06
2023-04-01T15:01:23.820Z,39.96
2023-04-01T15:05:23.720Z,41.24
2023-04-01T15:09:23.731Z,37.23
2023-04-01T15:13:24.235Z,36.83
2023-04-01T15:17:23.914Z,39.68
2023-04-01T15:21:24.034Z,40.07
2023-04-01T15:25:24.242Z,40.54
2023-04-01T15:29:24.272Z,39.17
2023-04-01T15:33:24.754Z,35.57
2023-04-01T15:37:24.363Z,33.89
2023-04-01T15:41:24.478Z,26.54
2023-04-01T15:45:24.759Z,30.42
2023-04-01T15:49:24.772Z,39.84
2023-04-01T15:53:25.250Z,30.06
2023-04-01T15:57:24.942Z,32.77
2023-04-01T16:01:25.076Z,31.74
2023-04-01T16:05:25.244Z,32.81
2023-04-01T16:09:25.287Z,37.76
2023-04-01T16:13:25.394Z,31.44
2023-04-01T16:17:25.433Z,33.28
2023-04-01T16:21:25.562Z,33.31
2023-04-01T16:25:25.757Z,32.44
2023-04-01T16:29:25.862Z,32.83
2023-04-01T16:33:25.846Z,32.67
2023-04-01T16:37:26.288Z,30.18
2023-04-01T16:41:26.033Z,32.49
2023-04-01T16:45:26.284Z,31.01
2023-04-01T16:49:26.777Z,31.44
2023-04-01T16:53:26.386Z,29.64
2023-04-01T16:57:26.890Z,29.38
2023-04-01T17:01:26.685Z,30.06
2023-04-01T17:05:26.755Z,32.14
2023-04-01T17:09:26.863Z,35.47
2023-04-01T17:13:27.003Z,33.35
2023-04-01T17:17:27.104Z,33.96
2023-04-01T17:21:27.284Z,36.56
2023-04-01T17:25:27.824Z,32.17
2023-04-01T17:29:27.784Z,33.86
2023-04-01T17:33:27.616Z,37.78
2023-04-01T17:37:27.781Z,38.07
2023-04-01T17:41:27.918Z,36.70
2023-04-01T17:45:28.291Z,38.49
2023-04-01T17:49:28.171Z,36.44
2023-04-01T17:53:28.328Z,38.54
2023-04-01T17:57:28.922Z,37.47
2023-04-01T18:01:28.616Z,41.07
2023-04-01T18:05:28.807Z,43.86
2023-04-01T18:09:28.830Z,38.13
2023-04-01T18:13:29.277Z,41.79
2023-04-01T18:17:29.393Z,41.15
2023-04-01T18:21:29.309Z,44.43
2023-04-01T18:25:29.397Z,41.54
2023-04-01T18:29:29.563Z,41.88
2023-04-01T18:33:29.848Z,42.11
2023-04-01T18:37:29.908Z,44.01
2023-04-01T18:41:30.318Z,46.21
2023-04-01T18:45:30.354Z,49.61
2023-04-01T18:49:30.376Z,41.84
2023-04-01T18:53:30.824Z,47.45
2023-04-01T18:57:30.751Z,43.13
2023-04-01T19:01:30.877Z,42.88
2023-04-01T19:05:31.807Z,46.27
2023-04-01T19:09:31.271Z,42.88
2023-04-01T19:13:31.800Z,42.13
2023-04-01T19:17:32.100Z,45.58
2023-04-01T19:21:31.792Z,46.01
2023-04-01T19:25:31.870Z,42.60
2023-04-01T19:29:32.039Z,46.52
2023-04-01T19:33:32.322Z,46.21
2023-04-01T19:37:32.846Z,48.69
2023-04-01T19:41:32.618Z,49.36
2023-04-01T19:45:32.826Z,50.00
2023-04-01T19:49:33.350Z,49.43
2023-04-01T19:53:33.325Z,48.14
2023-04-01T19:57:33.335Z,50.94
2023-04-01T20:01:44.072Z,47.96
2023-04-01T20:05:34.633Z,50.96
2023-04-01T20:09:33.857Z,49.25
2023-04-01T20:13:33.865Z,50.50
2023-04-01T20:17:33.893Z,50.92
2023-04-01T20:21:33.843Z,50.13
2023-04-01T20:25:34.182Z,48.25
2023-04-01T20:29:34.348Z,45.21
2023-04-01T20:33:34.345Z,48.25
2023-04-01T20:37:34.835Z,52.83
2023-04-01T20:41:34.856Z,45.66
2023-04-01T20:45:35.058Z,45.68
2023-04-01T20:49:35.347Z,51.59
2023-04-01T20:53:35.386Z,50.84
2023-04-01T20:57:35.931Z,46.95
2023-04-01T21:01:35.571Z,49.01
2023-04-01T21:05:36.079Z,54.39
2023-04-01T21:09:35.957Z,47.77
2023-04-01T21:13:36.383Z,52.32
2023-04-01T21:17:36.392Z,47.60
2023-04-01T21:21:36.534Z,45.57
2023-04-01T21:25:37.163Z,43.65
2023-04-01T21:29:37.364Z,49.28
2023-04-01T21:33:37.124Z,45.65
2023-04-01T21:37:37.368Z,42.67
2023-04-01T21:41:37.541Z,44.51
2023-04-01T21:45:37.848Z,45.24
2023-04-01T21:49:38.392Z,43.49
2023-04-01T21:53:38.220Z,44.44
2023-04-01T21:57:39.033Z,42.87
2023-04-01T22:01:38.667Z,44.92
2023-04-01T22:05:38.902Z,41.50
2023-04-01T22:09:39.032Z,41.68
2023-04-01T22:13:39.857Z,41.60
2023-04-01T22:17:39.468Z,41.28
2023-04-01T22:21:39.601Z,41.36
2023-04-01T22:25:39.868Z,37.97
2023-04-01T22:29:43.069Z,38.97
2023-04-01T22:33:40.403Z,38.22
2023-04-01T22:37:40.397Z,36.78
2023-04-01T22:41:39.947Z,39.26
2023-04-01T22:45:40.418Z,38.95
2023-04-01T22:49:39.895Z,43.08
2023-04-01T22:53:39.861Z,37.84
2023-04-01T22:57:39.893Z,37.29
2023-04-01T23:01:40.385Z,36.96
2023-04-01T23:05:39.728Z,35.83
2023-04-01T23:09:39.907Z,38.64
2023-04-01T23:13:39.719Z,36.90
2023-04-01T23:17:41.929Z,38.03
2023-04-01T23:21:40.396Z,39.66
2023-04-01T23:25:40.875Z,37.59
2023-04-01T23:29:40.394Z,38.51
2023-04-01T23:33:41.920Z,37.60
2023-04-01T23:37:40.341Z,37.23
2023-04-01T23:41:40.916Z,37.48
2023-04-01T23:45:40.897Z,35.61
2023-04-01T23:49:40.591Z,37.33
2023-04-01T23:53:40.936Z,37.20
2023-04-01T23:57:40.746Z,40.99
